createdAt,value
2017-05-23T00:01:31.000Z,22.5
2017-05-23T00:11:31.000Z,22.8
2017-05-23T00:21:31.000Z,22.5
2017-05-23T00:31:31.000Z,22.4
2017-05-23T00:41:31.000Z,22.7
2017-05-23T00:51:31.000Z,22.6
2017-05-23T01:01:31.000Z,22.6
2017-05-23T01:11:31.000Z,22.6
2017-05-23T01:21:31.000Z,22.5
2017-05-23T01:31:31.000Z,22.5
2017-05-23T01:41:31.000Z,22.4
2017-05-23T01:51:31.000Z,22.3
2017-05-23T02:01:31.000Z,22.3
2017-05-23T02:11:31.000Z,22.5
2017-05-23T02:21:31.000Z,22.2
2017-05-23T02:31:31.000Z,22.3
2017-05-23T02:41:31.000Z,22.3
2017-05-23T02:51:31.000Z,22.2
2017-05-23T03:01:31.000Z,22.5
2017-05-23T03:11:31.000Z,23.1
2017-05-23T03:21:31.000Z,23
2017-05-23T03:31:31.000Z,22.8
2017-05-23T03:41:31.000Z,23
2017-05-23T03:51:31.000Z,22.3
2017-05-23T04:01:31.000Z,22.3
2017-05-23T04:11:31.000Z,22.2
2017-05-23T04:21:31.000Z,22.2
2017-05-23T04:31:31.000Z,22.3
2017-05-23T04:41:31.000Z,22.6
2017-05-23T04:51:31.000Z,23
2017-05-23T05:01:31.000Z,23
2017-05-23T05:11:31.000Z,22.9
2017-05-23T05:21:31.000Z,22.7
2017-05-23T05:31:31.000Z,22.5
2017-05-23T05:41:32.000Z,22.5
2017-05-23T05:51:31.000Z,22.6
2017-05-23T06:01:31.000Z,22.8
2017-05-23T06:11:31.000Z,22.9
2017-05-23T06:21:32.000Z,23
2017-05-23T06:31:32.000Z,23.3
2017-05-23T06:41:32.000Z,23
2017-05-23T06:51:32.000Z,23.1
2017-05-23T07:01:32.000Z,23.3
2017-05-23T07:11:32.000Z,23.3
2017-05-23T07:21:35.000Z,23.3
2017-05-23T07:31:32.000Z,23.3
2017-05-23T07:41:32.000Z,23.3
2017-05-23T07:51:32.000Z,23.2
2017-05-23T08:01:32.000Z,23.6
2017-05-23T08:11:32.000Z,23
2017-05-23T08:21:32.000Z,23.1
2017-05-23T08:31:32.000Z,23.2
2017-05-23T08:41:32.000Z,23.6
2017-05-23T08:51:32.000Z,23.6
2017-05-23T09:01:32.000Z,23.7
2017-05-23T09:11:32.000Z,23.7
2017-05-23T09:21:32.000Z,23.7
2017-05-23T09:31:32.000Z,23.6
2017-05-23T09:41:32.000Z,23.6
2017-05-23T09:51:32.000Z,23.6
2017-05-23T10:01:32.000Z,23.5
2017-05-23T10:11:32.000Z,23.6
2017-05-23T10:21:32.000Z,23.6
2017-05-23T10:31:32.000Z,23.2
2017-05-23T10:41:32.000Z,23.6
2017-05-23T10:51:32.000Z,23.6
2017-05-23T11:01:32.000Z,23.6
2017-05-23T11:11:32.000Z,23.6
2017-05-23T11:21:32.000Z,23.6
2017-05-23T11:31:32.000Z,23.7
2017-05-23T11:41:32.000Z,23.8
2017-05-23T11:51:32.000Z,23.8
2017-05-23T12:01:32.000Z,23.8
2017-05-23T12:11:32.000Z,23.8
2017-05-23T12:21:32.000Z,23.8
2017-05-23T12:31:32.000Z,24.1
2017-05-23T12:41:32.000Z,23.4
2017-05-23T12:51:32.000Z,23.8
2017-05-23T13:01:33.000Z,23.8
2017-05-23T13:11:32.000Z,23.8
2017-05-23T13:21:33.000Z,23.9
2017-05-23T13:31:33.000Z,23.8
2017-05-23T13:41:33.000Z,23.8
2017-05-23T13:51:33.000Z,23.8
2017-05-23T14:01:33.000Z,23.9
2017-05-23T14:21:33.000Z,23.8
2017-05-23T14:41:33.000Z,23.8
2017-05-23T14:51:33.000Z,23.8
2017-05-23T15:01:33.000Z,24.1
2017-05-23T15:21:33.000Z,23.8
2017-05-23T15:41:33.000Z,23.9
2017-05-23T15:51:33.000Z,23.9
2017-05-23T16:01:33.000Z,23.8
2017-05-23T16:21:33.000Z,23.8
2017-05-23T16:41:33.000Z,23.8
2017-05-23T16:51:33.000Z,23.7
2017-05-23T17:01:33.000Z,23.7
2017-05-23T17:21:33.000Z,23.7
2017-05-23T17:41:33.000Z,23.3
2017-05-23T17:51:33.000Z,23.7
2017-05-23T18:01:33.000Z,23.6
2017-05-23T18:21:33.000Z,23.6
2017-05-23T18:41:33.000Z,23.5
2017-05-23T18:51:33.000Z,23.1
2017-05-23T19:01:33.000Z,23.5
2017-05-23T19:21:33.000Z,23.5
2017-05-23T19:41:33.000Z,23.4
2017-05-23T19:51:34.000Z,23.5
2017-05-23T20:01:33.000Z,23.5
2017-05-23T20:21:34.000Z,23.8
2017-05-23T20:41:34.000Z,23
2017-05-23T20:51:34.000Z,23.4
2017-05-23T21:01:34.000Z,23.4
2017-05-23T21:21:34.000Z,23.3
2017-05-23T21:41:34.000Z,22.9
2017-05-23T21:51:34.000Z,23.2
2017-05-23T22:01:34.000Z,22.8
2017-05-23T22:21:34.000Z,22.1
2017-05-23T22:41:34.000Z,22.2
2017-05-23T23:01:34.000Z,22.3
2017-05-23T23:21:34.000Z,22.2
2017-05-23T23:41:34.000Z,22.4
2017-05-23T23:51:34.000Z,22.1
